Spirit Lake, Idaho
Current Conditions -  °F | °C
As of 6:35 PM on Sunday 21 Dec 2014 (Local Time) from KCOE Reporting Station
Clear Clear  
Wind Chill: 37°   Ceiling: Unl
Heat Index: 41°   Visibility: 10mi
Dew Point: 34°   Wind: 6mph
Humidity: 76%   Direction: 250°WSW
Pressure: 29.88"   Gusts: NA
Location:  47.97°N, 116.87°W
Report Text: KCOE 220235Z AUTO 25005KT 10SM CLR 05/01 A2988 RMK AO1
Loading
Personal Weather Stations






























Interactive Weather Map New forecast layout! Learn more

10-Day Weather Forecast

Advertisements
Track Severe Weather on mobile